createdAt,value
2022-11-06T00:00:04.642Z,16.60
2022-11-06T00:01:04.557Z,16.70
2022-11-06T00:02:04.512Z,18.00
2022-11-06T00:03:04.539Z,18.60
2022-11-06T00:04:04.377Z,19.40
2022-11-06T00:05:04.291Z,19.10
2022-11-06T00:06:04.227Z,19.10
2022-11-06T00:07:04.176Z,20.50
2022-11-06T00:08:04.053Z,20.30
2022-11-06T00:09:04.011Z,20.30
2022-11-06T00:10:03.965Z,20.70
2022-11-06T00:11:03.880Z,19.90
2022-11-06T00:12:03.789Z,20.30
2022-11-06T00:13:03.728Z,19.40
2022-11-06T00:14:03.882Z,20.50
2022-11-06T00:15:03.619Z,20.00
2022-11-06T00:16:03.540Z,21.20
2022-11-06T00:17:03.477Z,20.30
2022-11-06T00:18:03.449Z,20.20
2022-11-06T00:19:03.574Z,20.10
2022-11-06T00:20:03.266Z,19.70
2022-11-06T00:21:03.257Z,21.40
2022-11-06T00:22:03.173Z,20.90
2022-11-06T00:23:03.560Z,21.50
2022-11-06T00:24:03.044Z,21.10
2022-11-06T00:25:02.961Z,21.20
2022-11-06T00:26:02.924Z,21.20
2022-11-06T00:27:02.866Z,20.90
2022-11-06T00:28:02.779Z,22.20
2022-11-06T00:29:02.710Z,21.30
2022-11-06T00:30:02.646Z,22.50
2022-11-06T00:31:02.588Z,21.60
2022-11-06T00:32:02.719Z,22.20
2022-11-06T00:33:03.512Z,22.50
2022-11-06T00:34:02.401Z,22.80
2022-11-06T00:35:02.329Z,24.10
2022-11-06T00:36:02.459Z,25.10
2022-11-06T00:37:02.195Z,28.40
2022-11-06T00:38:02.152Z,23.40
2022-11-06T00:39:23.074Z,25.00
2022-11-06T00:40:02.022Z,23.90
2022-11-06T00:41:02.159Z,25.90
2022-11-06T00:42:01.908Z,24.60
2022-11-06T00:43:01.961Z,24.30
2022-11-06T00:44:01.777Z,25.30
2022-11-06T00:45:01.705Z,26.50
2022-11-06T00:46:01.624Z,25.90
2022-11-06T00:47:01.580Z,25.20
2022-11-06T00:48:01.498Z,26.00
2022-11-06T00:49:01.452Z,27.10
2022-11-06T00:50:01.585Z,26.10
2022-11-06T00:51:01.360Z,26.20
2022-11-06T00:52:01.469Z,27.80
2022-11-06T00:53:01.192Z,28.60
2022-11-06T00:54:01.142Z,27.60
2022-11-06T00:55:01.073Z,29.40
2022-11-06T00:56:00.993Z,27.00
2022-11-06T00:57:00.952Z,25.90
2022-11-06T00:58:01.072Z,26.00
2022-11-06T00:59:00.820Z,27.60
2022-11-06T01:00:00.721Z,27.00
2022-11-06T01:01:00.689Z,27.50
2022-11-06T01:02:00.819Z,26.00
2022-11-06T01:04:40.021Z,25.30
2022-11-06T01:05:40.937Z,25.30
2022-11-06T01:06:40.861Z,26.10
2022-11-06T01:07:40.808Z,25.50
2022-11-06T01:08:40.746Z,25.60
2022-11-06T01:09:40.810Z,27.00
2022-11-06T01:10:40.593Z,25.40
2022-11-06T01:12:11.188Z,24.60
2022-11-06T01:12:40.496Z,24.40
2022-11-06T01:13:40.415Z,24.60
2022-11-06T01:14:40.360Z,23.90
2022-11-06T01:15:40.284Z,24.20
2022-11-06T01:16:40.339Z,25.60
2022-11-06T01:17:40.169Z,26.40
2022-11-06T01:18:40.094Z,24.70
2022-11-06T01:19:40.031Z,25.60
2022-11-06T01:21:49.131Z,24.20
2022-11-06T01:22:50.053Z,25.70
2022-11-06T01:23:50.006Z,24.50
2022-11-06T01:24:49.947Z,26.70
2022-11-06T01:25:49.878Z,26.20
2022-11-06T01:27:19.998Z,25.10
2022-11-06T01:27:49.816Z,26.00
2022-11-06T01:28:49.729Z,25.70
2022-11-06T01:29:49.878Z,24.10
2022-11-06T01:30:49.612Z,25.80
2022-11-06T01:31:49.526Z,25.10
2022-11-06T01:32:49.503Z,24.40
2022-11-06T01:33:49.406Z,25.10
2022-11-06T01:34:50.642Z,26.40
2022-11-06T01:35:49.292Z,24.90
2022-11-06T01:36:49.179Z,26.70
2022-11-06T01:37:49.309Z,24.90
2022-11-06T01:38:49.064Z,25.50
2022-11-06T01:39:48.943Z,25.70
2022-11-06T01:40:48.921Z,26.90
2022-11-06T01:41:48.839Z,27.50
2022-11-06T01:42:48.791Z,26.70
2022-11-06T01:43:48.699Z,26.10
2022-11-06T01:44:48.975Z,26.70
2022-11-06T01:45:48.567Z,27.30
2022-11-06T01:46:48.523Z,26.80
2022-11-06T01:47:48.470Z,27.90
2022-11-06T01:48:48.384Z,26.40
2022-11-06T01:49:48.342Z,27.60
2022-11-06T01:50:48.273Z,28.00
2022-11-06T01:51:48.221Z,27.50
2022-11-06T01:52:48.142Z,26.60
2022-11-06T01:53:48.192Z,29.10
2022-11-06T01:54:48.034Z,26.60
2022-11-06T01:55:47.975Z,27.10
2022-11-06T01:57:08.915Z,27.30
2022-11-06T01:57:48.038Z,27.30
2022-11-06T01:58:47.753Z,29.10
2022-11-06T01:59:47.705Z,28.30
2022-11-06T02:00:47.633Z,29.00
2022-11-06T02:01:47.674Z,28.80
2022-11-06T02:02:47.647Z,29.30
2022-11-06T02:03:47.458Z,27.20
2022-11-06T02:04:47.400Z,26.80
2022-11-06T02:05:47.320Z,27.50
2022-11-06T02:06:47.240Z,27.10
2022-11-06T02:07:47.183Z,27.20
2022-11-06T02:08:47.132Z,29.60
2022-11-06T02:09:47.062Z,28.20
2022-11-06T02:10:47.006Z,27.30
2022-11-06T02:11:46.920Z,27.10
2022-11-06T02:12:46.882Z,27.80
2022-11-06T02:13:46.816Z,28.40
2022-11-06T02:14:46.755Z,28.20
2022-11-06T02:15:46.676Z,27.90
2022-11-06T02:16:46.612Z,27.10
2022-11-06T02:17:46.546Z,26.80
2022-11-06T02:18:47.072Z,27.30
2022-11-06T02:19:46.421Z,28.00
2022-11-06T02:20:46.368Z,26.30
2022-11-06T02:21:46.511Z,28.70
2022-11-06T02:22:46.334Z,26.90
2022-11-06T02:23:46.175Z,27.40
2022-11-06T02:24:46.242Z,27.70
2022-11-06T02:25:46.076Z,26.60
2022-11-06T02:26:45.986Z,26.80
2022-11-06T02:27:46.617Z,27.50
2022-11-06T02:28:45.850Z,25.60
2022-11-06T02:29:45.775Z,25.40
2022-11-06T02:30:45.732Z,24.90
2022-11-06T02:31:45.646Z,26.50
2022-11-06T02:33:06.582Z,23.70
2022-11-06T02:33:45.517Z,24.90
2022-11-06T02:34:45.470Z,24.40
2022-11-06T02:35:45.412Z,25.20
2022-11-06T02:36:45.549Z,24.10
2022-11-06T02:37:45.276Z,24.80
2022-11-06T02:38:45.215Z,25.30
2022-11-06T02:39:45.264Z,24.20
2022-11-06T02:40:45.125Z,24.80
2022-11-06T02:41:45.023Z,24.90
2022-11-06T02:42:44.966Z,24.30
2022-11-06T02:43:44.901Z,24.50
2022-11-06T02:44:44.892Z,23.50
2022-11-06T02:45:44.853Z,24.20
2022-11-06T02:46:44.762Z,23.00
2022-11-06T02:47:44.643Z,24.20
2022-11-06T02:48:44.576Z,24.30
2022-11-06T02:49:44.494Z,23.00
2022-11-06T02:50:44.776Z,24.10
2022-11-06T02:51:44.433Z,23.30
2022-11-06T02:52:44.379Z,22.80
2022-11-06T02:53:44.290Z,22.70
2022-11-06T02:54:44.244Z,23.40
2022-11-06T02:55:44.170Z,22.70
2022-11-06T02:56:44.119Z,24.40
2022-11-06T02:57:44.041Z,23.40
2022-11-06T02:58:48.793Z,22.30
2022-11-06T02:59:43.936Z,21.60
2022-11-06T03:00:43.848Z,21.90
2022-11-06T03:01:43.857Z,21.50
2022-11-06T03:02:43.861Z,22.50
2022-11-06T03:03:43.677Z,20.50
2022-11-06T03:04:43.531Z,21.80
2022-11-06T03:05:43.483Z,22.90
2022-11-06T03:06:43.426Z,22.30
2022-11-06T03:07:43.493Z,20.80
2022-11-06T03:08:43.316Z,20.80
2022-11-06T03:09:43.219Z,19.90
2022-11-06T03:10:43.175Z,20.20
2022-11-06T03:11:43.087Z,22.10
2022-11-06T03:12:43.042Z,21.30
2022-11-06T03:13:42.955Z,20.70
2022-11-06T03:14:42.904Z,22.00
2022-11-06T03:15:42.824Z,21.50
2022-11-06T03:16:42.777Z,22.70
2022-11-06T03:17:42.734Z,21.40
2022-11-06T03:18:42.665Z,21.60
2022-11-06T03:19:42.594Z,22.20
2022-11-06T03:20:42.772Z,22.00
2022-11-06T03:21:42.446Z,21.20
2022-11-06T03:22:42.630Z,22.70
2022-11-06T03:23:42.532Z,22.30
2022-11-06T03:24:42.303Z,22.70
2022-11-06T03:25:42.213Z,22.10
2022-11-06T03:28:21.018Z,22.70
2022-11-06T03:29:21.943Z,23.00
2022-11-06T03:30:22.011Z,24.20
2022-11-06T03:31:21.834Z,23.20
2022-11-06T03:32:21.761Z,23.90
2022-11-06T03:33:21.674Z,23.70
2022-11-06T03:34:21.761Z,23.60
2022-11-06T03:35:21.691Z,24.00
2022-11-06T03:36:21.705Z,24.40
2022-11-06T03:37:22.444Z,24.00
2022-11-06T03:38:21.365Z,23.40
2022-11-06T03:39:21.309Z,25.10
2022-11-06T03:40:21.235Z,24.00
2022-11-06T03:41:21.180Z,22.80
2022-11-06T03:42:21.120Z,23.40
2022-11-06T03:43:21.049Z,23.50
2022-11-06T03:44:42.073Z,22.90
2022-11-06T03:45:20.903Z,23.90
2022-11-06T03:46:20.994Z,23.50
2022-11-06T03:47:20.991Z,23.10
2022-11-06T03:48:20.717Z,22.10
2022-11-06T03:49:20.669Z,22.90
2022-11-06T03:50:20.736Z,21.80
2022-11-06T03:51:20.538Z,21.90
2022-11-06T03:52:20.468Z,22.70
2022-11-06T03:53:20.397Z,21.30
2022-11-06T03:54:20.350Z,21.10
2022-11-06T03:55:20.277Z,21.90
2022-11-06T03:56:20.487Z,21.70
2022-11-06T03:57:20.130Z,22.00
2022-11-06T03:58:20.256Z,21.90
2022-11-06T03:59:20.014Z,22.00
2022-11-06T04:00:19.990Z,22.00
2022-11-06T04:01:20.293Z,22.10
2022-11-06T04:02:20.002Z,21.00
2022-11-06T04:03:19.799Z,20.80
2022-11-06T04:04:19.758Z,22.00
2022-11-06T04:05:19.670Z,21.80
2022-11-06T04:06:19.608Z,23.20
2022-11-06T04:07:19.537Z,22.90
2022-11-06T04:08:19.519Z,23.50
2022-11-06T04:09:19.408Z,23.10
2022-11-06T04:10:19.362Z,24.60
2022-11-06T04:11:20.012Z,22.90
2022-11-06T04:12:19.229Z,24.00
2022-11-06T04:13:19.162Z,25.10
2022-11-06T04:14:19.235Z,23.70
2022-11-06T04:15:19.039Z,23.20
2022-11-06T04:16:18.978Z,22.60
2022-11-06T04:17:18.932Z,22.00
2022-11-06T04:18:18.837Z,21.00
2022-11-06T04:19:18.779Z,20.20
2022-11-06T04:20:39.713Z,20.60
2022-11-06T04:21:18.650Z,20.30
2022-11-06T04:22:18.586Z,20.50
2022-11-06T04:23:18.490Z,20.50
2022-11-06T04:24:18.406Z,20.00
2022-11-06T04:25:18.994Z,19.30
2022-11-06T04:26:18.289Z,18.80
2022-11-06T04:27:18.210Z,18.80
2022-11-06T04:28:18.141Z,20.40
2022-11-06T04:29:18.105Z,18.50
2022-11-06T04:30:18.015Z,20.30
2022-11-06T04:31:17.973Z,20.40
2022-11-06T04:32:17.922Z,19.70
2022-11-06T04:33:17.840Z,20.50
2022-11-06T04:34:17.779Z,19.70
2022-11-06T04:38:09.352Z,19.60
2022-11-06T04:38:35.282Z,19.60
2022-11-06T04:39:14.270Z,19.20
2022-11-06T04:40:14.174Z,20.30
2022-11-06T04:41:14.118Z,20.20
2022-11-06T04:42:14.059Z,20.40
2022-11-06T04:43:13.988Z,21.20
2022-11-06T04:44:13.926Z,20.50
2022-11-06T04:45:13.841Z,20.40
2022-11-06T04:46:13.811Z,21.10
2022-11-06T04:47:13.712Z,21.80
2022-11-06T04:48:14.026Z,21.00
2022-11-06T04:49:13.608Z,19.40
2022-11-06T04:50:13.531Z,20.30
2022-11-06T04:51:13.511Z,21.90
2022-11-06T04:52:13.396Z,20.50
2022-11-06T04:53:13.331Z,21.40
2022-11-06T04:54:13.517Z,20.50
2022-11-06T04:55:13.229Z,20.70
2022-11-06T04:56:13.169Z,21.10
2022-11-06T04:57:13.069Z,21.30
2022-11-06T04:58:13.443Z,21.00
2022-11-06T04:59:12.976Z,20.40
2022-11-06T05:00:12.908Z,21.00
2022-11-06T05:01:12.873Z,20.70
2022-11-06T05:02:13.386Z,20.90
2022-11-06T05:03:12.690Z,20.50
2022-11-06T05:04:12.618Z,21.50
2022-11-06T05:05:12.585Z,19.60
2022-11-06T05:06:12.508Z,20.00
2022-11-06T05:07:12.409Z,19.60
2022-11-06T05:08:12.633Z,21.10
2022-11-06T05:09:12.286Z,20.20
2022-11-06T05:10:12.249Z,19.60
2022-11-06T05:11:12.194Z,20.70
2022-11-06T05:12:12.123Z,20.70
2022-11-06T05:13:12.036Z,19.10
2022-11-06T05:14:12.093Z,19.20
2022-11-06T05:15:12.096Z,20.30
2022-11-06T05:16:11.905Z,19.00
2022-11-06T05:17:11.864Z,19.60
2022-11-06T05:18:12.335Z,18.80
2022-11-06T05:19:11.836Z,19.10
2022-11-06T05:20:11.716Z,19.00
2022-11-06T05:21:11.601Z,18.10
2022-11-06T05:22:11.542Z,19.20
2022-11-06T05:23:11.457Z,19.10
2022-11-06T05:24:12.001Z,18.70
2022-11-06T05:25:11.325Z,18.90
2022-11-06T05:26:11.303Z,18.90
2022-11-06T05:27:11.195Z,17.30
2022-11-06T05:28:11.450Z,18.40
2022-11-06T05:29:11.082Z,18.70
2022-11-06T05:30:10.985Z,18.50
2022-11-06T05:31:10.942Z,18.00
2022-11-06T05:32:31.880Z,17.60
2022-11-06T05:33:10.829Z,18.00
2022-11-06T05:34:10.755Z,18.20
2022-11-06T05:35:10.699Z,17.60
2022-11-06T05:36:10.834Z,17.60
2022-11-06T05:37:12.279Z,17.40
2022-11-06T05:38:10.805Z,18.10
2022-11-06T05:39:10.648Z,16.90
2022-11-06T05:40:10.383Z,17.20
2022-11-06T05:41:10.295Z,17.60
2022-11-06T05:42:10.484Z,17.00
2022-11-06T05:43:10.189Z,16.00
2022-11-06T05:44:10.137Z,17.40
2022-11-06T05:45:10.057Z,17.00
2022-11-06T05:46:29.712Z,16.30
2022-11-06T05:47:09.923Z,16.40
2022-11-06T05:48:09.848Z,15.90
2022-11-06T05:49:09.829Z,17.30
2022-11-06T05:50:09.746Z,16.10
2022-11-06T05:51:09.669Z,16.10
2022-11-06T05:52:09.605Z,16.10
2022-11-06T05:53:10.537Z,15.60
2022-11-06T05:54:10.930Z,15.90
2022-11-06T05:55:14.484Z,16.10
2022-11-06T05:56:09.364Z,16.50
2022-11-06T05:57:09.287Z,16.30
2022-11-06T05:58:09.148Z,16.10
2022-11-06T05:59:09.165Z,15.90
2022-11-06T06:00:09.080Z,15.40
2022-11-06T06:01:08.989Z,15.70
2022-11-06T06:02:09.347Z,14.90
2022-11-06T06:03:08.880Z,15.00
2022-11-06T06:04:08.783Z,15.70
2022-11-06T06:05:08.712Z,15.80
2022-11-06T06:06:08.657Z,15.60
2022-11-06T06:07:08.602Z,16.00
2022-11-06T06:08:29.529Z,15.50
2022-11-06T06:09:08.452Z,17.20
2022-11-06T06:10:08.387Z,15.90
2022-11-06T06:11:08.428Z,15.30
2022-11-06T06:12:08.292Z,15.50
2022-11-06T06:13:08.237Z,15.40
2022-11-06T06:14:08.180Z,16.00
2022-11-06T06:15:08.114Z,14.60
2022-11-06T06:16:08.028Z,14.80
2022-11-06T06:17:07.912Z,15.30
2022-11-06T06:18:07.876Z,14.70
2022-11-06T06:19:07.814Z,15.80
2022-11-06T06:20:07.749Z,14.90
2022-11-06T06:21:07.674Z,13.50
2022-11-06T06:22:07.614Z,14.50
2022-11-06T06:23:09.581Z,14.80
2022-11-06T06:24:07.486Z,15.00
2022-11-06T06:25:14.682Z,14.50
2022-11-06T06:26:07.409Z,14.20
2022-11-06T06:27:07.292Z,14.10
2022-11-06T06:28:07.233Z,14.90
2022-11-06T06:29:07.619Z,14.40
2022-11-06T06:30:07.112Z,14.70
2022-11-06T06:31:07.041Z,14.00
2022-11-06T06:32:07.011Z,14.60
2022-11-06T06:33:06.931Z,13.60
2022-11-06T06:34:06.852Z,14.10
2022-11-06T06:35:06.757Z,14.20
2022-11-06T06:36:06.738Z,14.70
2022-11-06T06:37:06.670Z,13.60
2022-11-06T06:38:06.616Z,14.20
2022-11-06T06:39:06.522Z,14.50
2022-11-06T06:40:06.451Z,13.80
2022-11-06T06:41:06.413Z,13.60
2022-11-06T06:42:06.352Z,14.30
2022-11-06T06:43:06.266Z,13.20
2022-11-06T06:44:27.209Z,13.40
2022-11-06T06:45:06.156Z,14.70
2022-11-06T06:46:06.072Z,13.40
2022-11-06T06:47:06.165Z,14.10
2022-11-06T06:48:05.950Z,15.00
2022-11-06T06:49:05.888Z,13.30
2022-11-06T06:50:05.845Z,14.00
2022-11-06T06:51:05.760Z,14.10
2022-11-06T06:52:05.700Z,14.30
2022-11-06T06:53:05.647Z,13.30
2022-11-06T06:54:05.541Z,13.50
2022-11-06T06:55:05.513Z,13.60
2022-11-06T06:56:05.446Z,13.40
2022-11-06T06:57:05.388Z,13.20
2022-11-06T06:58:05.304Z,13.20
2022-11-06T06:59:05.263Z,13.10
2022-11-06T07:00:05.166Z,15.70
2022-11-06T07:01:05.285Z,13.30
2022-11-06T07:02:05.170Z,12.90
2022-11-06T07:03:04.986Z,13.00
2022-11-06T07:04:04.915Z,13.20
2022-11-06T07:05:04.877Z,12.80
2022-11-06T07:06:04.869Z,14.20
2022-11-06T07:07:04.741Z,12.30
2022-11-06T07:09:43.535Z,12.00
2022-11-06T07:10:44.447Z,13.30
2022-11-06T07:11:44.421Z,13.10
2022-11-06T07:12:44.366Z,13.60
2022-11-06T07:16:40.250Z,13.20
2022-11-06T07:16:49.689Z,13.30
2022-11-06T07:17:45.143Z,12.60
2022-11-06T07:19:54.264Z,11.70
2022-11-06T07:20:55.168Z,12.80
2022-11-06T07:21:55.095Z,14.50
2022-11-06T07:22:55.047Z,12.30
2022-11-06T07:23:54.992Z,12.90
2022-11-06T07:24:54.925Z,12.50
2022-11-06T07:25:54.845Z,12.90
2022-11-06T07:26:54.814Z,11.60
2022-11-06T07:27:59.152Z,12.80
2022-11-06T07:28:54.656Z,13.10
2022-11-06T07:29:54.611Z,11.90
2022-11-06T07:30:54.535Z,11.50
2022-11-06T07:31:55.243Z,12.50
2022-11-06T07:32:54.422Z,11.90
2022-11-06T07:33:54.349Z,11.90
2022-11-06T07:34:54.263Z,12.50
2022-11-06T07:35:54.231Z,11.20
2022-11-06T07:36:54.148Z,11.60
2022-11-06T07:37:54.082Z,12.30
2022-11-06T07:38:54.011Z,12.70
2022-11-06T07:39:53.957Z,12.90
2022-11-06T07:40:54.129Z,12.40
2022-11-06T07:41:53.832Z,12.00
2022-11-06T07:42:53.788Z,11.80
2022-11-06T07:43:53.712Z,12.30
2022-11-06T07:44:53.642Z,12.40
2022-11-06T07:45:53.576Z,11.70
2022-11-06T07:46:53.500Z,11.90
2022-11-06T07:47:58.912Z,12.30
2022-11-06T07:48:53.419Z,12.60
2022-11-06T07:49:53.350Z,11.50
2022-11-06T07:50:53.270Z,11.30
2022-11-06T07:51:53.189Z,11.40
2022-11-06T07:52:53.146Z,12.10
2022-11-06T07:53:53.080Z,11.10
2022-11-06T07:55:14.005Z,11.10
2022-11-06T07:55:52.906Z,11.60
2022-11-06T07:56:52.887Z,11.10
2022-11-06T07:57:52.788Z,11.10
2022-11-06T07:58:52.761Z,12.00
2022-11-06T07:59:52.682Z,10.90
2022-11-06T08:00:52.813Z,10.70
2022-11-06T08:01:52.684Z,12.10
2022-11-06T08:02:52.507Z,11.50
2022-11-06T08:03:52.435Z,11.50
2022-11-06T08:04:52.373Z,11.40
2022-11-06T08:05:52.306Z,10.90
2022-11-06T08:06:52.247Z,11.80
2022-11-06T08:07:53.628Z,11.30
2022-11-06T08:08:57.705Z,11.40
2022-11-06T08:09:52.063Z,11.70
2022-11-06T08:10:51.994Z,12.20
2022-11-06T08:11:51.931Z,11.00
2022-11-06T08:13:13.045Z,10.80
2022-11-06T08:13:51.811Z,10.80
2022-11-06T08:14:51.855Z,11.10
2022-11-06T08:15:51.677Z,11.30
2022-11-06T08:16:51.815Z,11.30
2022-11-06T08:17:51.556Z,11.10
2022-11-06T08:18:51.502Z,10.60
2022-11-06T08:19:51.522Z,10.90
2022-11-06T08:20:51.335Z,12.30
2022-11-06T08:21:51.294Z,11.30
2022-11-06T08:22:51.202Z,10.60
2022-11-06T08:23:52.725Z,11.30
2022-11-06T08:24:51.108Z,11.40
2022-11-06T08:25:51.042Z,10.90
2022-11-06T08:26:50.968Z,10.20
2022-11-06T08:27:50.910Z,11.80
2022-11-06T08:28:50.825Z,10.40
2022-11-06T08:29:50.793Z,11.20
2022-11-06T08:31:11.702Z,11.10
2022-11-06T08:31:50.632Z,11.70
2022-11-06T08:32:50.617Z,11.50
2022-11-06T08:33:50.527Z,10.50
2022-11-06T08:34:50.445Z,10.80
2022-11-06T08:35:50.387Z,10.80
2022-11-06T08:36:50.322Z,10.80
2022-11-06T08:37:50.916Z,10.00
2022-11-06T08:38:50.208Z,10.10
2022-11-06T08:41:16.100Z,9.20
2022-11-06T08:41:21.254Z,9.50
2022-11-06T08:42:20.998Z,8.90
2022-11-06T08:43:20.914Z,8.90
2022-11-06T08:44:21.508Z,9.30
2022-11-06T08:45:20.788Z,8.60
2022-11-06T08:46:20.729Z,8.50
2022-11-06T08:47:20.675Z,8.90
2022-11-06T08:49:29.757Z,8.10
2022-11-06T08:50:30.702Z,8.20
2022-11-06T08:51:30.620Z,7.80
2022-11-06T08:52:34.089Z,8.00
2022-11-06T08:53:30.535Z,8.50
2022-11-06T08:54:30.464Z,7.80
2022-11-06T08:55:30.371Z,8.30
2022-11-06T08:56:30.311Z,7.90
2022-11-06T08:57:30.356Z,8.30
2022-11-06T08:58:30.181Z,8.10
2022-11-06T08:59:30.498Z,8.30
2022-11-06T09:00:30.079Z,8.30
2022-11-06T09:01:30.137Z,7.60
2022-11-06T09:02:30.303Z,8.20
2022-11-06T09:03:29.856Z,8.50
2022-11-06T09:04:29.807Z,8.40
2022-11-06T09:05:29.720Z,8.10
2022-11-06T09:08:08.576Z,7.20
2022-11-06T09:09:09.495Z,7.80
2022-11-06T09:10:09.439Z,7.60
2022-11-06T09:11:09.387Z,7.20
2022-11-06T09:12:09.319Z,7.50
2022-11-06T09:13:09.258Z,6.60
2022-11-06T09:14:09.184Z,7.30
2022-11-06T09:15:09.116Z,7.90
2022-11-06T09:16:15.304Z,6.50
2022-11-06T09:17:09.050Z,6.60
2022-11-06T09:18:09.231Z,7.30
2022-11-06T09:19:08.875Z,7.40
2022-11-06T09:20:08.808Z,7.30
2022-11-06T09:21:09.736Z,7.70
2022-11-06T09:22:08.678Z,6.80
2022-11-06T09:23:08.599Z,6.90
2022-11-06T09:25:18.727Z,7.00
2022-11-06T09:26:19.658Z,7.10
2022-11-06T09:27:19.589Z,7.20
2022-11-06T09:28:19.525Z,7.80
2022-11-06T09:29:19.686Z,7.10
2022-11-06T09:30:20.389Z,6.70
2022-11-06T09:31:19.322Z,6.80
2022-11-06T09:32:19.281Z,7.10
2022-11-06T09:33:19.753Z,6.60
2022-11-06T09:34:19.108Z,7.40
2022-11-06T09:35:19.075Z,7.40
2022-11-06T09:36:19.042Z,7.60
2022-11-06T09:37:18.967Z,7.00
2022-11-06T09:38:18.881Z,6.70
2022-11-06T09:39:19.031Z,7.10
2022-11-06T09:40:18.749Z,6.80
2022-11-06T09:41:18.694Z,6.40
2022-11-06T09:44:06.099Z,5.80
2022-11-06T09:44:58.432Z,6.40
2022-11-06T09:45:58.378Z,6.80
2022-11-06T09:46:58.301Z,6.00
2022-11-06T09:47:58.262Z,6.10
2022-11-06T09:48:58.189Z,6.10
2022-11-06T09:49:58.117Z,6.90
2022-11-06T09:50:58.043Z,6.10
2022-11-06T09:51:57.997Z,5.90
2022-11-06T09:53:03.050Z,5.20
2022-11-06T09:53:57.868Z,5.40
2022-11-06T09:55:01.519Z,5.30
2022-11-06T09:55:57.952Z,6.00
2022-11-06T09:56:57.675Z,6.40
2022-11-06T09:57:57.617Z,5.70
2022-11-06T09:58:57.545Z,6.50
2022-11-06T09:59:57.498Z,5.40
2022-11-06T10:00:57.761Z,5.80
2022-11-06T10:01:58.165Z,6.30
2022-11-06T10:02:57.632Z,5.50
2022-11-06T10:03:57.993Z,5.10
2022-11-06T10:04:57.157Z,5.40
2022-11-06T10:05:57.990Z,5.10
2022-11-06T10:06:57.976Z,5.00
2022-11-06T10:07:56.967Z,5.10
2022-11-06T10:08:57.469Z,5.20
2022-11-06T10:09:56.846Z,5.60
2022-11-06T10:10:56.804Z,5.00
2022-11-06T10:11:57.478Z,4.90
2022-11-06T10:12:57.475Z,4.90
2022-11-06T10:13:57.969Z,5.40
2022-11-06T10:14:56.609Z,5.20
2022-11-06T10:15:56.979Z,4.70
2022-11-06T10:16:57.105Z,4.80
2022-11-06T10:18:17.586Z,4.70
2022-11-06T10:18:56.255Z,5.40
2022-11-06T10:19:56.327Z,5.00
2022-11-06T10:20:56.398Z,7.40
2022-11-06T10:21:56.084Z,4.80
2022-11-06T10:22:56.024Z,5.50
2022-11-06T10:23:55.982Z,5.90
2022-11-06T10:24:55.893Z,6.20
2022-11-06T10:25:55.834Z,6.70
2022-11-06T10:26:55.773Z,7.00
2022-11-06T10:27:55.699Z,6.20
2022-11-06T10:28:55.638Z,7.20
2022-11-06T10:29:55.580Z,6.90
2022-11-06T10:30:55.501Z,6.70
2022-11-06T10:31:56.369Z,6.60
2022-11-06T10:32:55.382Z,5.40
2022-11-06T10:33:55.452Z,6.30
2022-11-06T10:34:55.260Z,5.40
2022-11-06T10:36:16.183Z,6.50
2022-11-06T10:36:55.145Z,5.40
2022-11-06T10:37:55.073Z,6.60
2022-11-06T10:38:55.015Z,5.70
2022-11-06T10:39:54.941Z,6.50
2022-11-06T10:40:54.897Z,6.10
2022-11-06T10:42:15.795Z,5.70
2022-11-06T10:42:54.751Z,6.00
2022-11-06T10:43:54.704Z,5.80
2022-11-06T10:44:54.626Z,5.20
2022-11-06T10:45:54.583Z,6.00
2022-11-06T10:46:54.497Z,6.00
2022-11-06T10:47:54.453Z,6.00
2022-11-06T10:48:54.371Z,5.20
2022-11-06T10:49:54.984Z,5.70
2022-11-06T10:50:54.470Z,5.60
2022-11-06T10:51:54.184Z,6.70
2022-11-06T10:52:54.101Z,7.10
2022-11-06T10:53:54.073Z,6.10
2022-11-06T10:54:54.002Z,6.60
2022-11-06T10:55:53.937Z,5.50
2022-11-06T10:56:53.854Z,6.20
2022-11-06T10:57:53.874Z,5.00
2022-11-06T10:58:53.792Z,5.20
2022-11-06T10:59:54.498Z,5.20
2022-11-06T11:00:53.747Z,4.50
2022-11-06T11:01:53.875Z,5.30
2022-11-06T11:02:53.476Z,4.80
2022-11-06T11:03:54.851Z,4.90
2022-11-06T11:04:57.666Z,5.30
2022-11-06T11:05:53.324Z,4.80
2022-11-06T11:06:53.213Z,4.80
2022-11-06T11:07:53.157Z,4.10
2022-11-06T11:08:53.099Z,4.50
2022-11-06T11:09:53.100Z,4.50
2022-11-06T11:11:04.509Z,4.10
2022-11-06T11:12:13.910Z,4.60
2022-11-06T11:12:53.142Z,4.30
2022-11-06T11:13:52.800Z,4.50
2022-11-06T11:14:52.738Z,4.10
2022-11-06T11:15:52.888Z,4.70
2022-11-06T11:16:52.611Z,3.90
2022-11-06T11:17:52.544Z,4.50
2022-11-06T11:18:52.487Z,4.10
2022-11-06T11:19:52.413Z,3.80
2022-11-06T11:20:52.347Z,4.50
2022-11-06T11:21:52.263Z,3.60
2022-11-06T11:22:52.470Z,4.30
2022-11-06T11:25:31.695Z,4.50
2022-11-06T11:26:31.968Z,4.00
2022-11-06T11:27:31.930Z,4.10
2022-11-06T11:28:31.850Z,3.80
2022-11-06T11:29:32.527Z,3.70
2022-11-06T11:30:31.729Z,3.60
2022-11-06T11:31:31.777Z,4.40
2022-11-06T11:32:31.607Z,4.00
2022-11-06T11:33:31.553Z,3.60
2022-11-06T11:34:31.470Z,4.00
2022-11-06T11:35:31.401Z,3.70
2022-11-06T11:36:31.351Z,4.20
2022-11-06T11:37:31.299Z,3.90
2022-11-06T11:38:31.327Z,4.40
2022-11-06T11:39:31.148Z,4.20
2022-11-06T11:40:31.107Z,4.30
2022-11-06T11:41:31.017Z,4.30
2022-11-06T11:42:30.985Z,4.30
2022-11-06T11:43:31.532Z,4.40
2022-11-06T11:44:30.860Z,3.40
2022-11-06T11:45:30.758Z,3.70
2022-11-06T11:46:30.728Z,3.70
2022-11-06T11:47:30.649Z,3.70
2022-11-06T11:48:51.578Z,3.70
2022-11-06T11:49:30.513Z,3.90
2022-11-06T11:50:30.564Z,4.50
2022-11-06T11:51:30.385Z,4.00
2022-11-06T11:52:30.553Z,4.20
2022-11-06T11:53:30.247Z,3.60
2022-11-06T11:54:30.506Z,3.70
2022-11-06T11:55:30.362Z,4.10
2022-11-06T11:56:50.086Z,3.40
2022-11-06T11:57:30.019Z,4.10
2022-11-06T11:58:30.566Z,4.10
2022-11-06T11:59:29.903Z,3.70
2022-11-06T12:00:29.831Z,3.30
2022-11-06T12:01:29.794Z,3.00
2022-11-06T12:02:29.889Z,3.20
2022-11-06T12:03:29.626Z,3.30
2022-11-06T12:04:29.569Z,3.00
2022-11-06T12:05:29.640Z,2.80
2022-11-06T12:06:29.463Z,3.00
2022-11-06T12:07:29.388Z,2.80
2022-11-06T12:08:29.308Z,2.80
2022-11-06T12:09:29.250Z,3.00
2022-11-06T12:10:29.173Z,3.10
2022-11-06T12:11:29.352Z,2.70
2022-11-06T12:12:29.093Z,2.50
2022-11-06T12:13:29.154Z,3.10
2022-11-06T12:14:29.602Z,3.00
2022-11-06T12:15:28.859Z,3.40
2022-11-06T12:16:28.796Z,2.50
2022-11-06T12:17:28.734Z,2.30
2022-11-06T12:18:28.679Z,3.00
2022-11-06T12:19:28.605Z,2.80
2022-11-06T12:20:28.547Z,2.90
2022-11-06T12:21:28.510Z,3.00
2022-11-06T12:22:28.404Z,2.90
2022-11-06T12:23:28.354Z,2.30
2022-11-06T12:24:49.278Z,2.60
2022-11-06T12:25:28.230Z,2.90
2022-11-06T12:26:28.165Z,2.80
2022-11-06T12:27:28.223Z,2.50
2022-11-06T12:28:29.028Z,3.00
2022-11-06T12:29:27.979Z,2.80
2022-11-06T12:30:27.934Z,3.10
2022-11-06T12:31:27.881Z,3.00
2022-11-06T12:32:27.789Z,3.00
2022-11-06T12:34:03.956Z,2.40
2022-11-06T12:34:27.671Z,2.70
2022-11-06T12:35:28.517Z,2.70
2022-11-06T12:36:27.538Z,3.10
2022-11-06T12:37:27.462Z,2.70
2022-11-06T12:38:27.405Z,2.70
2022-11-06T12:39:27.351Z,2.30
2022-11-06T12:40:27.274Z,2.80
2022-11-06T12:41:27.212Z,2.40
2022-11-06T12:42:27.169Z,2.50
2022-11-06T12:43:27.081Z,2.30
2022-11-06T12:44:27.140Z,2.40
2022-11-06T12:45:26.968Z,2.50
2022-11-06T12:46:26.908Z,1.80
2022-11-06T12:47:26.848Z,2.50
2022-11-06T12:48:28.010Z,2.20
2022-11-06T12:49:26.926Z,2.20
2022-11-06T12:50:26.653Z,2.50
2022-11-06T12:51:26.580Z,2.30
2022-11-06T12:52:26.530Z,2.40
2022-11-06T12:53:27.108Z,2.50
2022-11-06T12:54:27.101Z,2.30
2022-11-06T12:55:26.311Z,2.30
2022-11-06T12:56:26.260Z,2.20
2022-11-06T12:57:26.411Z,2.00
2022-11-06T12:58:26.156Z,2.20
2022-11-06T12:59:26.089Z,1.70
2022-11-06T13:00:31.400Z,2.60
2022-11-06T13:01:26.081Z,2.20
2022-11-06T13:02:25.947Z,2.40
2022-11-06T13:03:26.045Z,2.20
2022-11-06T13:04:25.772Z,2.10
2022-11-06T13:05:25.951Z,2.30
2022-11-06T13:06:25.654Z,2.40
2022-11-06T13:07:25.606Z,1.90
2022-11-06T13:08:25.503Z,2.00
2022-11-06T13:09:26.957Z,2.10
2022-11-06T13:10:25.373Z,2.40
2022-11-06T13:11:25.539Z,2.50
2022-11-06T13:12:25.844Z,2.20
2022-11-06T13:13:25.183Z,1.80
2022-11-06T13:14:25.120Z,2.10
2022-11-06T13:15:25.085Z,2.10
2022-11-06T13:16:24.968Z,2.20
2022-11-06T13:17:24.919Z,2.80
2022-11-06T13:18:24.844Z,1.80
2022-11-06T13:19:24.813Z,2.00